< < Back
Terminal Aerodrome Forecast


Current Version              Previous Versions:   1  2  3  4  5  6  7  8  9  

Terminal Aerodrome Forecast

862
FTUS42 KGSP 251720
TAFAND
TAF
KAND 251720Z 2518/2618 15003KT P6SM SCT045
      TEMPO 2518/2522 VRB03KT
     FM261100 VRB03KT 4SM BR FEW045
     FM261300 08003KT P6SM FEW045=

Latest METAR

572
SAUS70 KWBC 261300 RRG
MTRAND
METAR KAND 261256Z AUTO 00000KT 10SM CLR 26/24 A3012 RMK AO2 SLP187
T02610239


USA.gov is the U.S. government's official web portal to all federal, state and local government web resources and services.